NAY58CJ GCRR-GCLP
Flight info
| Callsign | NAY58CJ |
|---|---|
| Flight time | 0h 29m |
| Altitude | 13000 |
| Route | LORPO |
| Aircraft | AT76/M-SDFGIRY/S |
Departure
| Time | 2026-04-30 17:41 |
|---|---|
| Airport | César Manrique-Lanzarote Airport (GCRR) |
Arrival
| Time | 2026-04-30 18:11 |
|---|---|
| Airport | Gran Canaria Airport (GCLP) |
| Time | Latitude | Longitude | Altitude | Speed | Heading |
|---|---|---|---|---|---|
| 2026-04-30 17:39 | 28.88274 | -13.85287 | 13097 ft | 243 kts | 229° |
| 2026-04-30 17:41 | 28.78911 | -13.96704 | 13106 ft | 247 kts | 229° |
| 2026-04-30 17:42 | 28.76576 | -13.99547 | 13103 ft | 247 kts | 229° |
| 2026-04-30 17:42 | 28.73050 | -14.03834 | 13097 ft | 247 kts | 229° |
| 2026-04-30 17:43 | 28.70694 | -14.06695 | 13105 ft | 247 kts | 229° |
| 2026-04-30 17:44 | 28.67184 | -14.10957 | 13101 ft | 247 kts | 229° |
| 2026-04-30 17:44 | 28.63665 | -14.15223 | 13104 ft | 246 kts | 229° |
| 2026-04-30 17:46 | 28.57811 | -14.22309 | 13099 ft | 246 kts | 229° |
| 2026-04-30 17:47 | 28.53094 | -14.27954 | 13097 ft | 246 kts | 228° |
| 2026-04-30 17:48 | 28.48339 | -14.33583 | 13100 ft | 246 kts | 228° |
| 2026-04-30 17:48 | 28.44789 | -14.37787 | 13096 ft | 246 kts | 228° |
| 2026-04-30 17:49 | 28.40035 | -14.43411 | 13102 ft | 246 kts | 228° |
| 2026-04-30 17:50 | 28.35289 | -14.49017 | 13099 ft | 246 kts | 228° |
| 2026-04-30 17:51 | 28.31739 | -14.53204 | 13105 ft | 246 kts | 228° |
| 2026-04-30 17:52 | 28.28166 | -14.57414 | 13097 ft | 246 kts | 228° |
| 2026-04-30 17:53 | 28.22213 | -14.64371 | 13101 ft | 246 kts | 228° |
| 2026-04-30 17:54 | 28.17466 | -14.69974 | 13101 ft | 246 kts | 229° |
| 2026-04-30 17:55 | 28.12730 | -14.75562 | 13100 ft | 246 kts | 228° |
| 2026-04-30 17:56 | 28.07989 | -14.81145 | 13101 ft | 246 kts | 229° |
| 2026-04-30 17:57 | 28.04424 | -14.85336 | 13102 ft | 246 kts | 228° |
| 2026-04-30 17:58 | 28.00846 | -14.89542 | 13102 ft | 247 kts | 229° |
| 2026-04-30 17:59 | 27.96082 | -14.95133 | 13101 ft | 247 kts | 228° |
| 2026-04-30 18:00 | 27.94112 | -15.01998 | 11828 ft | 271 kts | 306° |
| 2026-04-30 18:00 | 27.98934 | -15.05493 | 10940 ft | 274 kts | 327° |
| 2026-04-30 18:01 | 28.01888 | -15.08117 | 10290 ft | 270 kts | 313° |
| 2026-04-30 18:02 | 28.06988 | -15.10267 | 9102 ft | 286 kts | 9° |
| 2026-04-30 18:02 | 28.12590 | -15.09447 | 7850 ft | 267 kts | 330° |
| 2026-04-30 18:03 | 28.14723 | -15.14729 | 6444 ft | 254 kts | 280° |
| 2026-04-30 18:04 | 28.14129 | -15.20487 | 4905 ft | 246 kts | 251° |
| 2026-04-30 18:05 | 28.12182 | -15.26558 | 3250 ft | 245 kts | 250° |
| 2026-04-30 18:06 | 28.10195 | -15.31378 | 2616 ft | 220 kts | 215° |
| 2026-04-30 18:07 | 28.04894 | -15.33519 | 2220 ft | 181 kts | 198° |
| 2026-04-30 18:08 | 28.01839 | -15.34825 | 1591 ft | 140 kts | 201° |
| 2026-04-30 18:09 | 27.98343 | -15.36379 | 868 ft | 132 kts | 199° |
| 2026-04-30 18:10 | 27.95042 | -15.37834 | 246 ft | 126 kts | 198° |
| 2026-04-30 18:11 | 27.93123 | -15.38772 | 65 ft | 10 kts | 225° |
| 2026-04-30 18:11 | 27.93168 | -15.38872 | 71 ft | 17 kts | 28° |
| 2026-04-30 18:12 | 27.93274 | -15.38882 | 75 ft | 4 kts | 292° |
| 2026-04-30 18:13 | 27.93281 | -15.38900 | 69 ft | 0 kts | 292° |